sensor_id;sensor_type;location;lat;lon;timestamp;temperature;humidity
15922;DHT22;8060;50.948;3.146;2022-09-09T07:14:02;15.50;99.90
15922;DHT22;8060;50.948;3.146;2022-09-09T07:16:31;15.40;99.90
15922;DHT22;8060;50.948;3.146;2022-09-09T07:19:00;15.50;99.90
15922;DHT22;8060;50.948;3.146;2022-09-09T07:21:30;15.60;99.90
15922;DHT22;8060;50.948;3.146;2022-09-09T07:23:58;15.70;99.90
15922;DHT22;8060;50.948;3.146;2022-09-09T07:26:29;15.70;99.90
15922;DHT22;8060;50.948;3.146;2022-09-09T07:28:58;15.80;99.90
15922;DHT22;8060;50.948;3.146;2022-09-09T07:31:29;15.80;99.90
15922;DHT22;8060;50.948;3.146;2022-09-09T07:33:58;15.80;99.90
15922;DHT22;8060;50.948;3.146;2022-09-09T07:36:28;15.90;99.90
15922;DHT22;8060;50.948;3.146;2022-09-09T07:39:00;15.90;99.90
15922;DHT22;8060;50.948;3.146;2022-09-09T07:41:31;15.90;99.90
15922;DHT22;8060;50.948;3.146;2022-09-09T07:44:04;15.90;99.90
15922;DHT22;8060;50.948;3.146;2022-09-09T07:46:35;16.00;99.90
15922;DHT22;8060;50.948;3.146;2022-09-09T07:49:03;16.00;99.90
15922;DHT22;8060;50.948;3.146;2022-09-09T07:51:33;16.00;99.90
15922;DHT22;8060;50.948;3.146;2022-09-09T07:54:04;16.10;99.90
15922;DHT22;8060;50.948;3.146;2022-09-09T07:56:33;16.10;99.90
15922;DHT22;8060;50.948;3.146;2022-09-09T07:59:01;16.20;99.90
15922;DHT22;8060;50.948;3.146;2022-09-09T08:01:32;16.20;99.90
15922;DHT22;8060;50.948;3.146;2022-09-09T08:04:05;16.20;99.90
15922;DHT22;8060;50.948;3.146;2022-09-09T08:06:36;16.30;99.90
15922;DHT22;8060;50.948;3.146;2022-09-09T08:09:05;16.30;99.90
15922;DHT22;8060;50.948;3.146;2022-09-09T08:11:34;16.40;99.90
15922;DHT22;8060;50.948;3.146;2022-09-09T08:14:05;16.40;99.90
15922;DHT22;8060;50.948;3.146;2022-09-09T08:16:36;16.40;99.90
15922;DHT22;8060;50.948;3.146;2022-09-09T08:19:05;16.40;99.90
15922;DHT22;8060;50.948;3.146;2022-09-09T08:21:35;16.40;99.90
15922;DHT22;8060;50.948;3.146;2022-09-09T08:24:05;16.40;99.90
15922;DHT22;8060;50.948;3.146;2022-09-09T08:26:35;16.50;99.90
15922;DHT22;8060;50.948;3.146;2022-09-09T08:29:06;16.60;99.90
15922;DHT22;8060;50.948;3.146;2022-09-09T08:31:36;16.60;99.90
15922;DHT22;8060;50.948;3.146;2022-09-09T08:34:07;16.60;99.90
15922;DHT22;8060;50.948;3.146;2022-09-09T08:36:38;16.70;99.90
15922;DHT22;8060;50.948;3.146;2022-09-09T08:39:07;16.80;99.90
15922;DHT22;8060;50.948;3.146;2022-09-09T08:41:56;16.90;99.90
15922;DHT22;8060;50.948;3.146;2022-09-09T08:44:38;17.00;99.90
15922;DHT22;8060;50.948;3.146;2022-09-09T08:47:19;17.00;99.90
15922;DHT22;8060;50.948;3.146;2022-09-09T08:50:03;17.20;99.90
15922;DHT22;8060;50.948;3.146;2022-09-09T08:52:37;17.30;99.90
15922;DHT22;8060;50.948;3.146;2022-09-09T08:55:19;17.40;99.90
15922;DHT22;8060;50.948;3.146;2022-09-09T08:57:50;17.40;99.90
15922;DHT22;8060;50.948;3.146;2022-09-09T09:00:19;17.50;99.90
15922;DHT22;8060;50.948;3.146;2022-09-09T09:02:57;17.50;99.90
15922;DHT22;8060;50.948;3.146;2022-09-09T09:05:35;17.60;99.90
15922;DHT22;8060;50.948;3.146;2022-09-09T09:08:12;17.70;99.90
15922;DHT22;8060;50.948;3.146;2022-09-09T09:10:47;17.60;99.90
15922;DHT22;8060;50.948;3.146;2022-09-09T09:13:19;17.50;99.90
15922;DHT22;8060;50.948;3.146;2022-09-09T09:15:52;17.50;99.90
15922;DHT22;8060;50.948;3.146;2022-09-09T09:18:21;17.40;99.90
15922;DHT22;8060;50.948;3.146;2022-09-09T09:21:00;17.40;99.90
15922;DHT22;8060;50.948;3.146;2022-09-09T09:23:36;17.30;99.90
15922;DHT22;8060;50.948;3.146;2022-09-09T09:26:09;17.30;99.90
15922;DHT22;8060;50.948;3.146;2022-09-09T09:28:39;17.30;99.90
15922;DHT22;8060;50.948;3.146;2022-09-09T09:31:10;17.40;99.90
15922;DHT22;8060;50.948;3.146;2022-09-09T09:33:47;17.40;99.90
15922;DHT22;8060;50.948;3.146;2022-09-09T09:36:17;17.40;99.90
15922;DHT22;8060;50.948;3.146;2022-09-09T09:38:54;17.40;99.90
15922;DHT22;8060;50.948;3.146;2022-09-09T09:41:43;17.40;99.90
15922;DHT22;8060;50.948;3.146;2022-09-09T09:44:23;17.50;99.90
15922;DHT22;8060;50.948;3.146;2022-09-09T09:46:51;17.60;99.90
15922;DHT22;8060;50.948;3.146;2022-09-09T09:49:19;17.70;99.90
15922;DHT22;8060;50.948;3.146;2022-09-09T09:51:49;17.90;99.90
15922;DHT22;8060;50.948;3.146;2022-09-09T09:54:27;18.20;99.90
15922;DHT22;8060;50.948;3.146;2022-09-09T09:57:06;18.40;99.90
15922;DHT22;8060;50.948;3.146;2022-09-09T09:59:36;18.40;99.90
15922;DHT22;8060;50.948;3.146;2022-09-09T10:02:18;18.40;99.90
15922;DHT22;8060;50.948;3.146;2022-09-09T10:04:47;18.40;99.90
15922;DHT22;8060;50.948;3.146;2022-09-09T10:07:19;18.20;99.90
15922;DHT22;8060;50.948;3.146;2022-09-09T10:09:52;18.10;99.90
15922;DHT22;8060;50.948;3.146;2022-09-09T10:12:30;18.10;99.90
15922;DHT22;8060;50.948;3.146;2022-09-09T10:15:04;18.00;99.90
15922;DHT22;8060;50.948;3.146;2022-09-09T10:17:40;17.90;99.90
15922;DHT22;8060;50.948;3.146;2022-09-09T10:20:21;18.00;99.90
15922;DHT22;8060;50.948;3.146;2022-09-09T10:23:00;18.20;99.90
15922;DHT22;8060;50.948;3.146;2022-09-09T10:25:38;18.40;99.90
15922;DHT22;8060;50.948;3.146;2022-09-09T10:28:30;18.40;99.90
15922;DHT22;8060;50.948;3.146;2022-09-09T10:31:07;18.50;99.90
15922;DHT22;8060;50.948;3.146;2022-09-09T10:33:44;18.40;99.90
15922;DHT22;8060;50.948;3.146;2022-09-09T10:36:19;18.40;99.90
15922;DHT22;8060;50.948;3.146;2022-09-09T10:38:53;18.50;99.90
15922;DHT22;8060;50.948;3.146;2022-09-09T10:41:35;18.50;99.90
15922;DHT22;8060;50.948;3.146;2022-09-09T10:44:18;18.60;99.90
15922;DHT22;8060;50.948;3.146;2022-09-09T10:50:06;18.50;99.90
15922;DHT22;8060;50.948;3.146;2022-09-09T10:52:41;18.70;99.90
15922;DHT22;8060;50.948;3.146;2022-09-09T10:55:14;18.80;99.90
15922;DHT22;8060;50.948;3.146;2022-09-09T10:57:46;18.90;99.90
15922;DHT22;8060;50.948;3.146;2022-09-09T11:00:18;18.90;99.90
15922;DHT22;8060;50.948;3.146;2022-09-09T11:02:50;18.80;99.90
15922;DHT22;8060;50.948;3.146;2022-09-09T11:05:21;18.80;99.90
15922;DHT22;8060;50.948;3.146;2022-09-09T11:07:55;18.70;99.90
15922;DHT22;8060;50.948;3.146;2022-09-09T11:10:30;18.70;99.90
15922;DHT22;8060;50.948;3.146;2022-09-09T11:13:05;18.60;99.90
15922;DHT22;8060;50.948;3.146;2022-09-09T11:15:42;18.50;99.90
15922;DHT22;8060;50.948;3.146;2022-09-09T11:18:15;18.60;99.90
15922;DHT22;8060;50.948;3.146;2022-09-09T11:20:47;18.80;99.90
15922;DHT22;8060;50.948;3.146;2022-09-09T11:23:22;18.90;99.90
15922;DHT22;8060;50.948;3.146;2022-09-09T11:25:56;19.10;99.90
15922;DHT22;8060;50.948;3.146;2022-09-09T11:28:34;19.50;99.90
15922;DHT22;8060;50.948;3.146;2022-09-09T11:31:21;19.80;99.90
15922;DHT22;8060;50.948;3.146;2022-09-09T11:34:06;19.90;99.90
15922;DHT22;8060;50.948;3.146;2022-09-09T11:36:56;20.00;99.90
15922;DHT22;8060;50.948;3.146;2022-09-09T11:39:44;19.90;99.90
15922;DHT22;8060;50.948;3.146;2022-09-09T11:42:22;19.70;99.90
15922;DHT22;8060;50.948;3.146;2022-09-09T11:44:51;19.50;99.90
15922;DHT22;8060;50.948;3.146;2022-09-09T11:47:23;19.40;99.90
15922;DHT22;8060;50.948;3.146;2022-09-09T11:50:07;19.40;99.90
15922;DHT22;8060;50.948;3.146;2022-09-09T11:52:38;19.40;99.90
15922;DHT22;8060;50.948;3.146;2022-09-09T11:55:10;19.50;99.90
15922;DHT22;8060;50.948;3.146;2022-09-09T11:57:40;19.40;99.90
15922;DHT22;8060;50.948;3.146;2022-09-09T12:00:33;19.20;99.90
15922;DHT22;8060;50.948;3.146;2022-09-09T12:03:02;18.90;99.90
15922;DHT22;8060;50.948;3.146;2022-09-09T12:05:39;18.80;99.90
15922;DHT22;8060;50.948;3.146;2022-09-09T12:08:09;18.60;99.90
15922;DHT22;8060;50.948;3.146;2022-09-09T12:10:40;18.50;99.90
15922;DHT22;8060;50.948;3.146;2022-09-09T12:13:15;18.40;99.90
15922;DHT22;8060;50.948;3.146;2022-09-09T12:15:47;18.40;99.90
15922;DHT22;8060;50.948;3.146;2022-09-09T12:18:22;18.40;99.90
15922;DHT22;8060;50.948;3.146;2022-09-09T12:20:57;18.40;99.90
15922;DHT22;8060;50.948;3.146;2022-09-09T12:23:38;18.50;99.90
15922;DHT22;8060;50.948;3.146;2022-09-09T12:26:25;18.60;99.90
15922;DHT22;8060;50.948;3.146;2022-09-09T12:29:04;18.60;99.90
15922;DHT22;8060;50.948;3.146;2022-09-09T12:31:40;18.60;99.90
15922;DHT22;8060;50.948;3.146;2022-09-09T12:34:14;18.60;99.90
15922;DHT22;8060;50.948;3.146;2022-09-09T12:36:45;18.60;99.90
15922;DHT22;8060;50.948;3.146;2022-09-09T12:39:24;18.60;99.90
15922;DHT22;8060;50.948;3.146;2022-09-09T12:41:55;18.70;99.90
15922;DHT22;8060;50.948;3.146;2022-09-09T12:44:26;18.80;99.90
15922;DHT22;8060;50.948;3.146;2022-09-09T12:46:57;18.80;99.90
15922;DHT22;8060;50.948;3.146;2022-09-09T12:49:30;18.90;99.90
15922;DHT22;8060;50.948;3.146;2022-09-09T12:52:02;19.00;99.90
15922;DHT22;8060;50.948;3.146;2022-09-09T12:54:34;19.00;99.90
15922;DHT22;8060;50.948;3.146;2022-09-09T12:57:03;19.00;99.90
15922;DHT22;8060;50.948;3.146;2022-09-09T12:59:37;19.00;99.90
15922;DHT22;8060;50.948;3.146;2022-09-09T13:02:16;19.10;99.90
15922;DHT22;8060;50.948;3.146;2022-09-09T13:04:46;19.00;99.90
15922;DHT22;8060;50.948;3.146;2022-09-09T13:07:18;19.10;99.90
15922;DHT22;8060;50.948;3.146;2022-09-09T13:09:47;19.30;99.90
15922;DHT22;8060;50.948;3.146;2022-09-09T13:12:18;19.40;99.90
15922;DHT22;8060;50.948;3.146;2022-09-09T13:14:50;19.50;99.90
15922;DHT22;8060;50.948;3.146;2022-09-09T13:17:21;19.50;99.90
15922;DHT22;8060;50.948;3.146;2022-09-09T13:19:50;19.50;99.90
15922;DHT22;8060;50.948;3.146;2022-09-09T13:22:29;19.50;99.90
15922;DHT22;8060;50.948;3.146;2022-09-09T13:25:04;19.40;99.90
15922;DHT22;8060;50.948;3.146;2022-09-09T13:27:34;19.30;99.90
15922;DHT22;8060;50.948;3.146;2022-09-09T13:30:22;19.30;99.90
15922;DHT22;8060;50.948;3.146;2022-09-09T13:33:01;19.30;99.90
15922;DHT22;8060;50.948;3.146;2022-09-09T13:35:30;19.30;99.90
15922;DHT22;8060;50.948;3.146;2022-09-09T13:38:06;19.50;99.90
15922;DHT22;8060;50.948;3.146;2022-09-09T13:40:35;19.80;99.90
15922;DHT22;8060;50.948;3.146;2022-09-09T13:43:03;19.90;99.90
15922;DHT22;8060;50.948;3.146;2022-09-09T13:45:33;19.90;99.90
15922;DHT22;8060;50.948;3.146;2022-09-09T13:48:09;19.90;99.90
15922;DHT22;8060;50.948;3.146;2022-09-09T13:50:40;19.90;99.90
15922;DHT22;8060;50.948;3.146;2022-09-09T13:53:08;20.00;99.90
15922;DHT22;8060;50.948;3.146;2022-09-09T13:55:37;20.20;99.90
15922;DHT22;8060;50.948;3.146;2022-09-09T13:58:05;20.30;99.90
15922;DHT22;8060;50.948;3.146;2022-09-09T14:00:36;20.20;99.90
15922;DHT22;8060;50.948;3.146;2022-09-09T14:03:04;20.30;99.90
15922;DHT22;8060;50.948;3.146;2022-09-09T14:05:34;20.30;99.90
15922;DHT22;8060;50.948;3.146;2022-09-09T14:08:03;20.40;99.90
15922;DHT22;8060;50.948;3.146;2022-09-09T14:10:32;20.70;99.90
15922;DHT22;8060;50.948;3.146;2022-09-09T14:13:02;21.00;99.90
15922;DHT22;8060;50.948;3.146;2022-09-09T14:15:30;21.20;99.90
15922;DHT22;8060;50.948;3.146;2022-09-09T14:18:00;21.10;99.90
15922;DHT22;8060;50.948;3.146;2022-09-09T14:20:28;20.90;99.90
15922;DHT22;8060;50.948;3.146;2022-09-09T14:22:57;20.80;99.90
15922;DHT22;8060;50.948;3.146;2022-09-09T14:25:29;20.70;99.90
15922;DHT22;8060;50.948;3.146;2022-09-09T14:27:58;20.80;99.90
15922;DHT22;8060;50.948;3.146;2022-09-09T14:30:26;20.90;99.90
15922;DHT22;8060;50.948;3.146;2022-09-09T14:32:54;21.00;99.90
15922;DHT22;8060;50.948;3.146;2022-09-09T14:35:23;21.10;99.90
15922;DHT22;8060;50.948;3.146;2022-09-09T14:37:52;21.10;99.90
15922;DHT22;8060;50.948;3.146;2022-09-09T14:40:20;21.20;99.90
15922;DHT22;8060;50.948;3.146;2022-09-09T14:42:48;21.10;99.90
15922;DHT22;8060;50.948;3.146;2022-09-09T14:45:16;21.00;99.90
15922;DHT22;8060;50.948;3.146;2022-09-09T14:47:44;20.90;99.90
15922;DHT22;8060;50.948;3.146;2022-09-09T14:50:12;20.90;99.90
15922;DHT22;8060;50.948;3.146;2022-09-09T14:52:42;20.90;99.90
15922;DHT22;8060;50.948;3.146;2022-09-09T14:55:11;20.70;99.90
15922;DHT22;8060;50.948;3.146;2022-09-09T14:57:39;20.60;99.90
15922;DHT22;8060;50.948;3.146;2022-09-09T15:00:08;20.40;99.90
15922;DHT22;8060;50.948;3.146;2022-09-09T15:02:37;20.30;99.90
15922;DHT22;8060;50.948;3.146;2022-09-09T15:05:06;20.30;99.90
15922;DHT22;8060;50.948;3.146;2022-09-09T15:07:34;20.30;99.90
15922;DHT22;8060;50.948;3.146;2022-09-09T15:10:05;20.50;99.90
15922;DHT22;8060;50.948;3.146;2022-09-09T15:12:33;20.50;99.90
15922;DHT22;8060;50.948;3.146;2022-09-09T15:15:03;20.50;99.90
15922;DHT22;8060;50.948;3.146;2022-09-09T15:17:31;20.60;99.90
15922;DHT22;8060;50.948;3.146;2022-09-09T15:20:00;20.60;99.90
15922;DHT22;8060;50.948;3.146;2022-09-09T15:22:28;20.60;99.90
15922;DHT22;8060;50.948;3.146;2022-09-09T15:24:56;20.60;99.90
15922;DHT22;8060;50.948;3.146;2022-09-09T15:27:26;20.50;99.90
15922;DHT22;8060;50.948;3.146;2022-09-09T15:29:54;20.50;99.90
15922;DHT22;8060;50.948;3.146;2022-09-09T15:32:23;20.50;99.90
15922;DHT22;8060;50.948;3.146;2022-09-09T15:34:51;20.50;99.90
15922;DHT22;8060;50.948;3.146;2022-09-09T15:37:20;20.50;99.90
15922;DHT22;8060;50.948;3.146;2022-09-09T15:39:48;20.30;99.90
15922;DHT22;8060;50.948;3.146;2022-09-09T15:42:16;20.30;99.90
15922;DHT22;8060;50.948;3.146;2022-09-09T15:44:46;20.40;99.90
15922;DHT22;8060;50.948;3.146;2022-09-09T15:47:14;20.60;99.90
15922;DHT22;8060;50.948;3.146;2022-09-09T15:49:43;20.70;99.90
15922;DHT22;8060;50.948;3.146;2022-09-09T15:52:11;20.80;99.90
15922;DHT22;8060;50.948;3.146;2022-09-09T15:54:39;20.80;99.90
15922;DHT22;8060;50.948;3.146;2022-09-09T15:57:12;20.80;99.90
15922;DHT22;8060;50.948;3.146;2022-09-09T15:59:40;20.70;99.90
15922;DHT22;8060;50.948;3.146;2022-09-09T16:02:10;20.70;99.90
15922;DHT22;8060;50.948;3.146;2022-09-09T16:04:38;20.60;99.90
15922;DHT22;8060;50.948;3.146;2022-09-09T16:07:06;20.40;99.90
15922;DHT22;8060;50.948;3.146;2022-09-09T16:09:35;20.30;99.90
15922;DHT22;8060;50.948;3.146;2022-09-09T16:12:05;20.30;99.90
15922;DHT22;8060;50.948;3.146;2022-09-09T16:14:36;20.20;99.90
15922;DHT22;8060;50.948;3.146;2022-09-09T16:17:06;20.20;99.90
15922;DHT22;8060;50.948;3.146;2022-09-09T16:19:35;20.10;99.90
15922;DHT22;8060;50.948;3.146;2022-09-09T16:22:04;20.10;99.90
15922;DHT22;8060;50.948;3.146;2022-09-09T16:24:33;20.00;99.90
15922;DHT22;8060;50.948;3.146;2022-09-09T16:27:01;20.00;99.90
15922;DHT22;8060;50.948;3.146;2022-09-09T16:29:29;20.00;99.90
15922;DHT22;8060;50.948;3.146;2022-09-09T16:31:58;20.00;99.90
15922;DHT22;8060;50.948;3.146;2022-09-09T16:34:30;19.90;99.90
15922;DHT22;8060;50.948;3.146;2022-09-09T16:37:02;19.90;99.90
15922;DHT22;8060;50.948;3.146;2022-09-09T16:39:30;19.90;99.90
15922;DHT22;8060;50.948;3.146;2022-09-09T16:41:58;19.90;99.90
15922;DHT22;8060;50.948;3.146;2022-09-09T16:44:26;19.90;99.90
15922;DHT22;8060;50.948;3.146;2022-09-09T16:46:54;20.00;99.90
15922;DHT22;8060;50.948;3.146;2022-09-09T16:49:26;19.90;99.90
15922;DHT22;8060;50.948;3.146;2022-09-09T16:51:57;19.90;99.90
15922;DHT22;8060;50.948;3.146;2022-09-09T16:54:27;19.90;99.90
15922;DHT22;8060;50.948;3.146;2022-09-09T16:56:56;19.80;99.90
15922;DHT22;8060;50.948;3.146;2022-09-09T16:59:24;19.80;99.90
15922;DHT22;8060;50.948;3.146;2022-09-09T17:01:53;19.70;99.90
15922;DHT22;8060;50.948;3.146;2022-09-09T17:04:24;19.70;99.90
15922;DHT22;8060;50.948;3.146;2022-09-09T17:06:54;19.70;99.90
15922;DHT22;8060;50.948;3.146;2022-09-09T17:09:23;19.60;99.90
15922;DHT22;8060;50.948;3.146;2022-09-09T17:11:57;19.60;99.90
15922;DHT22;8060;50.948;3.146;2022-09-09T17:14:25;19.50;99.90
15922;DHT22;8060;50.948;3.146;2022-09-09T17:16:53;19.50;99.90
15922;DHT22;8060;50.948;3.146;2022-09-09T17:19:21;19.50;99.90
15922;DHT22;8060;50.948;3.146;2022-09-09T17:21:49;19.50;99.90
15922;DHT22;8060;50.948;3.146;2022-09-09T17:24:37;19.50;99.90
15922;DHT22;8060;50.948;3.146;2022-09-09T17:27:08;19.50;99.90
15922;DHT22;8060;50.948;3.146;2022-09-09T17:29:36;19.40;99.90
15922;DHT22;8060;50.948;3.146;2022-09-09T17:32:05;19.40;99.90
15922;DHT22;8060;50.948;3.146;2022-09-09T17:34:34;19.40;99.90
15922;DHT22;8060;50.948;3.146;2022-09-09T17:37:03;19.30;99.90
15922;DHT22;8060;50.948;3.146;2022-09-09T17:39:32;19.20;99.90
15922;DHT22;8060;50.948;3.146;2022-09-09T17:42:01;19.20;99.90
15922;DHT22;8060;50.948;3.146;2022-09-09T17:44:30;19.20;99.90
15922;DHT22;8060;50.948;3.146;2022-09-09T17:47:00;19.10;99.90
15922;DHT22;8060;50.948;3.146;2022-09-09T17:49:30;19.00;99.90
15922;DHT22;8060;50.948;3.146;2022-09-09T17:51:58;18.90;99.90
15922;DHT22;8060;50.948;3.146;2022-09-09T17:54:27;18.90;99.90
15922;DHT22;8060;50.948;3.146;2022-09-09T17:56:55;18.90;99.90
15922;DHT22;8060;50.948;3.146;2022-09-09T17:59:24;18.90;99.90
15922;DHT22;8060;50.948;3.146;2022-09-09T18:01:56;18.70;99.90
15922;DHT22;8060;50.948;3.146;2022-09-09T18:04:28;18.70;99.90
15922;DHT22;8060;50.948;3.146;2022-09-09T18:06:59;18.70;99.90
15922;DHT22;8060;50.948;3.146;2022-09-09T18:09:27;18.70;99.90
15922;DHT22;8060;50.948;3.146;2022-09-09T18:11:57;18.70;99.90
15922;DHT22;8060;50.948;3.146;2022-09-09T18:14:28;18.70;99.90
15922;DHT22;8060;50.948;3.146;2022-09-09T18:16:58;18.70;99.90
15922;DHT22;8060;50.948;3.146;2022-09-09T18:19:29;18.70;99.90
15922;DHT22;8060;50.948;3.146;2022-09-09T18:21:59;18.60;99.90
15922;DHT22;8060;50.948;3.146;2022-09-09T18:24:28;18.60;99.90
15922;DHT22;8060;50.948;3.146;2022-09-09T18:26:57;18.60;99.90
15922;DHT22;8060;50.948;3.146;2022-09-09T18:29:25;18.60;99.90
15922;DHT22;8060;50.948;3.146;2022-09-09T18:31:54;18.60;99.90
15922;DHT22;8060;50.948;3.146;2022-09-09T18:34:24;18.50;99.90
15922;DHT22;8060;50.948;3.146;2022-09-09T18:36:54;18.50;99.90
15922;DHT22;8060;50.948;3.146;2022-09-09T18:39:25;18.50;99.90
15922;DHT22;8060;50.948;3.146;2022-09-09T18:41:55;18.40;99.90
15922;DHT22;8060;50.948;3.146;2022-09-09T18:44:26;18.40;99.90
15922;DHT22;8060;50.948;3.146;2022-09-09T18:46:55;18.40;99.90
15922;DHT22;8060;50.948;3.146;2022-09-09T18:49:26;18.40;99.90
15922;DHT22;8060;50.948;3.146;2022-09-09T18:51:54;18.30;99.90
15922;DHT22;8060;50.948;3.146;2022-09-09T18:54:25;18.30;99.90
15922;DHT22;8060;50.948;3.146;2022-09-09T18:56:55;18.30;99.90
15922;DHT22;8060;50.948;3.146;2022-09-09T18:59:23;18.30;99.90
15922;DHT22;8060;50.948;3.146;2022-09-09T19:01:52;18.20;99.90
15922;DHT22;8060;50.948;3.146;2022-09-09T19:04:22;18.20;99.90
15922;DHT22;8060;50.948;3.146;2022-09-09T19:06:52;18.10;99.90
15922;DHT22;8060;50.948;3.146;2022-09-09T19:09:25;18.10;99.90
15922;DHT22;8060;50.948;3.146;2022-09-09T19:11:54;18.10;99.90
15922;DHT22;8060;50.948;3.146;2022-09-09T19:14:23;18.00;99.90
15922;DHT22;8060;50.948;3.146;2022-09-09T19:16:51;18.00;99.90
15922;DHT22;8060;50.948;3.146;2022-09-09T19:19:21;18.00;99.90
15922;DHT22;8060;50.948;3.146;2022-09-09T19:21:51;18.00;99.90
15922;DHT22;8060;50.948;3.146;2022-09-09T19:24:22;18.00;99.90
15922;DHT22;8060;50.948;3.146;2022-09-09T19:26:52;17.90;99.90
15922;DHT22;8060;50.948;3.146;2022-09-09T19:29:24;17.90;99.90
15922;DHT22;8060;50.948;3.146;2022-09-09T19:31:53;17.90;99.90
15922;DHT22;8060;50.948;3.146;2022-09-09T19:34:43;17.90;99.90
15922;DHT22;8060;50.948;3.146;2022-09-09T19:37:13;17.90;99.90
15922;DHT22;8060;50.948;3.146;2022-09-09T19:39:44;17.90;99.90
15922;DHT22;8060;50.948;3.146;2022-09-09T19:42:13;17.90;99.90
15922;DHT22;8060;50.948;3.146;2022-09-09T19:44:41;17.80;99.90
15922;DHT22;8060;50.948;3.146;2022-09-09T19:47:09;17.90;99.90
15922;DHT22;8060;50.948;3.146;2022-09-09T19:49:38;17.90;99.90
15922;DHT22;8060;50.948;3.146;2022-09-09T19:52:13;17.80;99.90
15922;DHT22;8060;50.948;3.146;2022-09-09T19:54:42;17.80;99.90
15922;DHT22;8060;50.948;3.146;2022-09-09T19:57:10;17.80;99.90
15922;DHT22;8060;50.948;3.146;2022-09-09T19:59:38;17.80;99.90
15922;DHT22;8060;50.948;3.146;2022-09-09T20:02:08;17.80;99.90
